Time;durP1;ratioP1;P1;durP2;ratioP2;P2;SDS_P1;SDS_P2;PMS_P1;PMS_P2;Temp;Humidity;BMP_temperature;BMP_pressure;BME280_temperature;BME280_humidity;BME280_pressure;Samples;Min_cycle;Max_cycle;Signal;HPM_P1;HPM_P2
2022/04/09 00:00:32;;;;;;;2.17;1.93;;;3.60;99.90;;;;;;5020285;28;20435;-75
2022/04/09 00:02:59;;;;;;;2.67;2.13;;;3.60;99.90;;;;;;5020091;28;20196;-76
2022/04/09 00:05:24;;;;;;;3.00;1.87;;;3.50;99.90;;;;;;5021785;28;20428;-75
2022/04/09 00:07:50;;;;;;;2.97;2.00;;;3.40;99.90;;;;;;5021165;28;21012;-76
2022/04/09 00:10:16;;;;;;;2.60;2.10;;;3.70;99.90;;;;;;5021870;28;20511;-77
2022/04/09 00:12:46;;;;;;;3.10;2.10;;;3.80;99.90;;;;;;5022220;28;20255;-77
2022/04/09 00:15:13;;;;;;;3.30;2.40;;;4.10;99.90;;;;;;5019444;28;21305;-77
2022/04/09 00:17:41;;;;;;;4.37;2.57;;;4.10;99.90;;;;;;5016935;28;20510;-78
2022/04/09 00:20:08;;;;;;;4.40;2.77;;;4.30;99.90;;;;;;5017257;28;20497;-77
2022/04/09 00:22:34;;;;;;;3.13;2.33;;;4.40;99.90;;;;;;5020753;28;20455;-78
2022/04/09 00:25:00;;;;;;;2.97;1.80;;;4.30;99.90;;;;;;5019452;28;20435;-79
2022/04/09 00:27:26;;;;;;;3.63;2.10;;;4.20;99.90;;;;;;5020520;28;20854;-79
2022/04/09 00:29:52;;;;;;;4.30;2.93;;;4.30;99.90;;;;;;5017572;28;20454;-80
2022/04/09 00:32:18;;;;;;;4.10;2.77;;;4.30;99.90;;;;;;5016362;28;20195;-78
2022/04/09 00:34:44;;;;;;;3.50;2.70;;;4.20;99.90;;;;;;5016199;28;20435;-78
2022/04/09 00:37:10;;;;;;;4.00;2.70;;;4.00;99.90;;;;;;5017180;28;20435;-78
2022/04/09 00:39:35;;;;;;;3.40;2.67;;;3.80;99.90;;;;;;5017785;28;20842;-77
2022/04/09 00:42:01;;;;;;;2.80;2.50;;;3.80;99.90;;;;;;5015365;28;20184;-79
2022/04/09 00:44:27;;;;;;;3.43;2.73;;;4.10;99.90;;;;;;5017050;28;20207;-77
2022/04/09 00:46:52;;;;;;;2.60;2.30;;;4.00;99.90;;;;;;5015002;28;20184;-76
2022/04/09 00:49:18;;;;;;;2.77;2.40;;;3.70;99.90;;;;;;5018666;28;20204;-76
2022/04/09 00:51:50;;;;;;;2.43;2.10;;;3.90;99.90;;;;;;5017027;28;20564;-76
2022/04/09 00:54:18;;;;;;;2.70;2.10;;;3.90;99.90;;;;;;5016791;28;20181;-77
2022/04/09 00:56:45;;;;;;;1.90;1.70;;;3.90;99.90;;;;;;5013597;28;20443;-77
2022/04/09 00:59:13;;;;;;;3.23;2.27;;;3.90;99.90;;;;;;5016496;28;20467;-77
2022/04/09 01:01:39;;;;;;;2.80;2.13;;;3.80;99.90;;;;;;5017066;28;20442;-78
2022/04/09 01:04:07;;;;;;;2.60;2.00;;;3.80;99.90;;;;;;5014916;28;20468;-78
2022/04/09 01:06:38;;;;;;;1.70;1.50;;;3.90;99.90;;;;;;5017534;28;21166;-77
2022/04/09 01:09:05;;;;;;;2.20;1.93;;;3.60;99.90;;;;;;5016842;28;20455;-79
2022/04/09 01:11:32;;;;;;;2.70;2.20;;;3.50;99.90;;;;;;5015319;28;20570;-77
2022/04/09 01:13:58;;;;;;;2.67;2.27;;;3.60;99.90;;;;;;5018152;28;21477;-77
2022/04/09 01:16:28;;;;;;;5.50;2.43;;;3.60;99.90;;;;;;5018682;28;20470;-78
2022/04/09 01:18:57;;;;;;;2.67;2.43;;;3.50;99.90;;;;;;5018228;28;20475;-76
2022/04/09 01:21:27;;;;;;;2.50;2.30;;;3.30;99.90;;;;;;5018696;28;20438;-76
2022/04/09 01:23:54;;;;;;;2.73;2.53;;;3.20;99.90;;;;;;5015819;28;20466;-78
2022/04/09 01:26:20;;;;;;;2.80;2.60;;;3.20;99.90;;;;;;5017974;28;21123;-77
2022/04/09 01:28:47;;;;;;;2.60;2.10;;;3.10;99.90;;;;;;5018611;28;20453;-79
2022/04/09 01:31:13;;;;;;;2.37;2.13;;;3.20;99.90;;;;;;5019030;28;20443;-78
2022/04/09 01:33:39;;;;;;;2.50;2.20;;;3.20;99.90;;;;;;5016126;28;20435;-79
2022/04/09 01:36:05;;;;;;;3.20;2.40;;;3.20;99.90;;;;;;5021581;28;20439;-79
2022/04/09 01:38:31;;;;;;;3.47;2.60;;;3.30;99.90;;;;;;5018717;28;20553;-79
2022/04/09 01:40:57;;;;;;;2.20;1.90;;;3.20;99.90;;;;;;5016822;28;20485;-81
2022/04/09 01:43:22;;;;;;;2.40;2.20;;;3.20;99.90;;;;;;5016797;28;20204;-79
2022/04/09 01:45:48;;;;;;;2.33;1.90;;;3.10;99.90;;;;;;5016282;28;20177;-77
2022/04/09 01:48:14;;;;;;;2.40;2.17;;;3.10;99.90;;;;;;5015485;28;20212;-78
2022/04/09 01:50:40;;;;;;;2.47;2.00;;;3.10;99.90;;;;;;5019834;28;20442;-80
2022/04/09 01:53:06;;;;;;;3.13;2.80;;;3.00;99.90;;;;;;5015220;28;20196;-77
2022/04/09 01:55:32;;;;;;;4.50;3.37;;;2.90;99.90;;;;;;5018845;28;20250;-77
2022/04/09 01:57:58;;;;;;;3.50;2.80;;;2.90;99.90;;;;;;5016915;28;20591;-79
2022/04/09 02:00:24;;;;;;;3.43;2.70;;;3.00;99.90;;;;;;5016401;28;20438;-77
2022/04/09 02:02:50;;;;;;;4.63;3.07;;;3.00;99.90;;;;;;5013631;28;20208;-77
2022/04/09 02:05:16;;;;;;;4.03;3.00;;;2.90;99.90;;;;;;5016419;28;20838;-77
2022/04/09 02:07:42;;;;;;;4.10;3.00;;;3.00;99.90;;;;;;5019405;28;20451;-80
2022/04/09 02:10:09;;;;;;;4.63;3.17;;;2.80;99.90;;;;;;5017879;28;20192;-77
2022/04/09 02:12:36;;;;;;;3.00;2.43;;;2.90;99.90;;;;;;5018158;28;20504;-76
2022/04/09 02:15:04;;;;;;;2.80;2.43;;;3.00;99.90;;;;;;5019070;28;21189;-77
2022/04/09 02:17:30;;;;;;;4.03;2.70;;;3.00;99.90;;;;;;5015178;28;20443;-76
2022/04/09 02:19:55;;;;;;;3.33;2.40;;;3.00;99.90;;;;;;5018312;28;20496;-75
2022/04/09 02:22:21;;;;;;;2.53;1.93;;;2.90;99.90;;;;;;5017471;28;20684;-75
2022/04/09 02:24:50;;;;;;;3.50;2.40;;;3.00;99.90;;;;;;5017715;28;20185;-76
2022/04/09 02:27:15;;;;;;;3.40;2.23;;;3.00;99.90;;;;;;5018470;28;20322;-75
2022/04/09 02:29:41;;;;;;;2.57;2.33;;;2.90;99.90;;;;;;5014023;28;20554;-75
2022/04/09 02:32:07;;;;;;;2.50;2.17;;;3.00;99.90;;;;;;5018545;28;20192;-76
2022/04/09 02:34:32;;;;;;;3.80;2.60;;;3.00;99.90;;;;;;5016278;28;20189;-75
2022/04/09 02:36:58;;;;;;;6.53;2.40;;;3.00;99.90;;;;;;5017980;28;20849;-77
2022/04/09 02:39:24;;;;;;;2.73;2.47;;;3.00;99.90;;;;;;5021137;28;20754;-75
2022/04/09 02:41:52;;;;;;;2.60;2.30;;;2.90;99.90;;;;;;5020183;28;20207;-76
2022/04/09 02:44:17;;;;;;;3.20;2.43;;;3.00;99.90;;;;;;5018959;28;20207;-75
2022/04/09 02:46:44;;;;;;;3.80;3.07;;;3.00;99.90;;;;;;5018395;28;20434;-76
2022/04/09 02:49:10;;;;;;;4.47;3.10;;;3.00;99.90;;;;;;5025487;28;20208;-75
2022/04/09 02:51:35;;;;;;;3.20;2.80;;;3.00;99.90;;;;;;5022691;28;20432;-77
2022/04/09 02:54:01;;;;;;;3.10;2.80;;;3.10;99.90;;;;;;5022079;28;20197;-76
2022/04/09 02:56:26;;;;;;;4.40;3.50;;;3.00;99.90;;;;;;5024336;28;20177;-75
2022/04/09 02:58:52;;;;;;;3.43;3.13;;;3.00;99.90;;;;;;5020946;28;20212;-76
2022/04/09 03:01:18;;;;;;;5.10;3.90;;;3.00;99.90;;;;;;5021671;28;20679;-76
2022/04/09 03:03:43;;;;;;;6.23;3.97;;;3.00;99.90;;;;;;5020328;28;20204;-76
2022/04/09 03:06:10;;;;;;;4.47;3.60;;;3.00;99.90;;;;;;5023727;28;20193;-74
2022/04/09 03:08:36;;;;;;;3.67;2.83;;;3.00;99.90;;;;;;5021221;28;20459;-74
2022/04/09 03:11:02;;;;;;;4.13;3.70;;;3.00;99.90;;;;;;5019984;28;20470;-74
2022/04/09 03:13:27;;;;;;;4.87;4.10;;;3.00;99.90;;;;;;5019797;28;20613;-74
2022/04/09 03:15:53;;;;;;;4.73;3.57;;;2.90;99.90;;;;;;5019038;28;20504;-75
2022/04/09 03:18:19;;;;;;;4.10;3.47;;;3.00;99.90;;;;;;5019800;28;20232;-75
2022/04/09 03:20:45;;;;;;;4.63;3.90;;;3.00;99.90;;;;;;5020292;28;20188;-75
2022/04/09 03:23:11;;;;;;;5.10;3.90;;;3.00;99.90;;;;;;5017163;28;20509;-75
2022/04/09 03:25:37;;;;;;;5.40;4.07;;;3.00;99.90;;;;;;5018503;28;20703;-76
2022/04/09 03:28:02;;;;;;;6.70;4.50;;;3.00;99.90;;;;;;5018631;28;20292;-76
2022/04/09 03:30:28;;;;;;;6.20;4.50;;;3.00;99.90;;;;;;5020526;28;20446;-75
2022/04/09 03:32:54;;;;;;;5.00;4.40;;;3.00;99.90;;;;;;5019055;28;20646;-76
2022/04/09 03:35:20;;;;;;;5.50;4.20;;;3.00;99.90;;;;;;5021858;28;20180;-77
2022/04/09 03:37:46;;;;;;;6.87;5.60;;;3.10;99.90;;;;;;5017276;28;20971;-77
2022/04/09 03:40:12;;;;;;;7.83;4.77;;;3.20;99.90;;;;;;5011923;28;20287;-77
2022/04/09 03:42:38;;;;;;;6.60;5.80;;;3.10;99.90;;;;;;5016846;28;20466;-75
2022/04/09 03:45:04;;;;;;;7.83;5.17;;;3.10;99.90;;;;;;5019600;28;21723;-75
2022/04/09 03:47:33;;;;;;;8.47;5.30;;;3.00;99.90;;;;;;5015523;28;20199;-76
2022/04/09 03:50:03;;;;;;;5.43;4.33;;;3.00;99.90;;;;;;5021813;28;20494;-76
2022/04/09 03:52:28;;;;;;;10.13;6.30;;;3.00;99.90;;;;;;5017919;28;20446;-74
2022/04/09 03:54:54;;;;;;;7.53;5.70;;;3.00;99.90;;;;;;5014681;28;20445;-76
2022/04/09 03:57:20;;;;;;;8.93;6.00;;;2.90;99.90;;;;;;5020334;28;20185;-75
2022/04/09 03:59:46;;;;;;;8.53;6.47;;;2.90;99.90;;;;;;5019460;28;20459;-75
2022/04/09 04:02:12;;;;;;;7.93;6.73;;;2.90;99.90;;;;;;5021265;28;20439;-78
2022/04/09 04:04:37;;;;;;;8.80;6.43;;;3.00;99.90;;;;;;5017247;28;21016;-74
2022/04/09 04:07:04;;;;;;;8.03;5.50;;;3.00;99.90;;;;;;5022348;28;20187;-76
2022/04/09 04:09:30;;;;;;;10.40;6.53;;;3.10;99.90;;;;;;5019718;28;20250;-76
2022/04/09 04:11:56;;;;;;;8.73;6.30;;;3.10;99.90;;;;;;5019091;28;21175;-75
2022/04/09 04:14:21;;;;;;;11.90;6.73;;;3.00;99.90;;;;;;5018736;28;20520;-75
2022/04/09 04:16:47;;;;;;;9.53;6.50;;;2.90;99.90;;;;;;5019440;28;20177;-75
2022/04/09 04:19:13;;;;;;;10.63;7.40;;;3.00;99.90;;;;;;5017485;28;20305;-76
2022/04/09 04:21:39;;;;;;;8.60;6.93;;;3.10;99.90;;;;;;5009008;28;20299;-76
2022/04/09 04:24:05;;;;;;;13.33;7.50;;;3.10;99.90;;;;;;5017948;28;20486;-75
2022/04/09 04:26:31;;;;;;;9.77;7.23;;;3.10;99.90;;;;;;5020439;28;20438;-75
2022/04/09 04:28:57;;;;;;;7.67;6.20;;;3.20;99.90;;;;;;5016959;28;20451;-76
2022/04/09 04:31:22;;;;;;;10.30;6.70;;;3.20;99.90;;;;;;5016373;28;20176;-76
2022/04/09 04:33:48;;;;;;;8.90;6.77;;;3.10;99.90;;;;;;5020760;28;20193;-75
2022/04/09 04:36:14;;;;;;;8.77;7.00;;;3.10;99.90;;;;;;4999853;28;20195;-75
2022/04/09 04:38:39;;;;;;;10.37;7.27;;;3.20;99.90;;;;;;5019068;28;20307;-77
2022/04/09 04:41:05;;;;;;;9.90;7.57;;;3.20;99.90;;;;;;5014747;28;20243;-74
2022/04/09 04:43:32;;;;;;;8.27;6.40;;;3.20;99.90;;;;;;5015242;28;20235;-76
2022/04/09 04:45:58;;;;;;;10.20;7.70;;;3.10;99.90;;;;;;5021270;28;20184;-75
2022/04/09 04:48:24;;;;;;;12.60;9.07;;;3.10;99.90;;;;;;5017313;28;20454;-77
2022/04/09 04:50:49;;;;;;;11.20;7.97;;;3.00;99.90;;;;;;5017562;28;20181;-76
2022/04/09 04:53:15;;;;;;;12.97;8.70;;;3.10;99.90;;;;;;5016824;28;20314;-76
2022/04/09 04:55:41;;;;;;;11.47;9.17;;;3.10;99.90;;;;;;5019104;28;20185;-75
2022/04/09 04:58:06;;;;;;;13.90;8.10;;;3.20;99.90;;;;;;5019925;28;20208;-76
2022/04/09 05:00:33;;;;;;;12.73;7.90;;;3.20;99.90;;;;;;5016065;28;20189;-77
2022/04/09 05:02:59;;;;;;;10.43;9.07;;;3.20;99.90;;;;;;5017627;28;20244;-74
2022/04/09 05:05:25;;;;;;;19.73;9.43;;;3.10;99.90;;;;;;5016639;28;20913;-74
2022/04/09 05:07:52;;;;;;;13.63;9.67;;;3.20;99.90;;;;;;5016708;28;20438;-75
2022/04/09 05:10:20;;;;;;;12.80;9.63;;;3.30;99.90;;;;;;5015472;28;20979;-75
2022/04/09 05:12:47;;;;;;;14.33;9.40;;;3.30;99.90;;;;;;5022329;28;20453;-77
2022/04/09 05:15:15;;;;;;;13.63;9.13;;;3.30;99.90;;;;;;5020602;28;20443;-76
2022/04/09 05:17:42;;;;;;;16.77;10.33;;;3.30;99.90;;;;;;5018191;28;20450;-76
2022/04/09 05:20:10;;;;;;;16.23;10.63;;;3.20;99.90;;;;;;5016745;28;20935;-76
2022/04/09 05:22:38;;;;;;;15.70;10.93;;;3.20;99.90;;;;;;5012298;28;20455;-78
2022/04/09 05:25:04;;;;;;;16.23;11.80;;;3.40;99.90;;;;;;5015776;28;20881;-78
2022/04/09 05:27:30;;;;;;;16.13;10.80;;;3.40;99.90;;;;;;5011076;28;20526;-77
2022/04/09 05:29:56;;;;;;;15.47;10.13;;;3.30;99.90;;;;;;5018692;28;20478;-77
2022/04/09 05:32:22;;;;;;;13.10;10.70;;;3.30;99.90;;;;;;5020344;28;20446;-77
2022/04/09 05:34:48;;;;;;;19.60;12.83;;;3.30;99.90;;;;;;5018680;28;21015;-76
2022/04/09 05:37:14;;;;;;;19.20;12.63;;;3.30;99.90;;;;;;5018641;28;20450;-77
2022/04/09 05:39:42;;;;;;;19.00;10.20;;;3.30;99.90;;;;;;5017364;28;20967;-74
2022/04/09 05:42:08;;;;;;;17.53;11.57;;;3.30;99.90;;;;;;5013326;28;20281;-75
2022/04/09 05:44:33;;;;;;;18.10;10.90;;;3.30;99.90;;;;;;5021450;28;20439;-74
2022/04/09 05:47:00;;;;;;;16.40;10.20;;;3.30;99.90;;;;;;5021580;28;20271;-73
2022/04/09 05:49:26;;;;;;;18.90;12.20;;;3.30;99.90;;;;;;5021371;28;20212;-74
2022/04/09 05:51:52;;;;;;;16.90;10.43;;;3.30;99.90;;;;;;5019835;28;20741;-74
2022/04/09 05:54:17;;;;;;;17.53;12.63;;;3.30;99.90;;;;;;5020103;28;20437;-73
2022/04/09 05:56:43;;;;;;;16.70;10.97;;;3.30;99.90;;;;;;5016527;28;20851;-73
2022/04/09 05:59:09;;;;;;;20.40;12.97;;;3.30;99.90;;;;;;5019078;28;20541;-75
2022/04/09 06:01:34;;;;;;;16.93;9.80;;;3.30;99.90;;;;;;5017537;28;20188;-76
2022/04/09 06:04:01;;;;;;;18.80;11.70;;;3.30;99.90;;;;;;5020309;28;20215;-74
2022/04/09 06:06:27;;;;;;;18.40;12.30;;;3.30;99.90;;;;;;5016771;28;20172;-76
2022/04/09 06:08:53;;;;;;;14.60;9.50;;;3.30;99.90;;;;;;5018466;28;20493;-74
2022/04/09 06:11:18;;;;;;;19.37;12.77;;;3.40;99.90;;;;;;5017576;28;20461;-74
2022/04/09 06:13:44;;;;;;;20.63;14.10;;;3.40;99.90;;;;;;5019865;28;20280;-74
2022/04/09 06:16:11;;;;;;;16.63;11.80;;;3.30;99.90;;;;;;5018271;28;20807;-73
2022/04/09 06:18:38;;;;;;;20.33;12.80;;;3.40;99.90;;;;;;5020792;28;20569;-74
2022/04/09 06:21:04;;;;;;;22.57;13.57;;;3.40;99.90;;;;;;5023211;28;20446;-76
2022/04/09 06:23:30;;;;;;;22.80;14.10;;;3.40;99.90;;;;;;5017311;28;20467;-76
2022/04/09 06:25:56;;;;;;;20.03;14.40;;;3.50;99.90;;;;;;5014733;28;20443;-74
2022/04/09 06:28:21;;;;;;;20.00;12.87;;;3.50;99.90;;;;;;5016451;28;20468;-77
2022/04/09 06:30:47;;;;;;;18.07;11.90;;;3.60;99.90;;;;;;5018126;28;20208;-73
2022/04/09 06:33:13;;;;;;;20.67;11.67;;;3.60;99.90;;;;;;5017283;28;20197;-75
2022/04/09 06:35:38;;;;;;;21.90;12.60;;;3.60;99.90;;;;;;5015670;28;20226;-75
2022/04/09 06:38:04;;;;;;;21.97;13.77;;;3.70;99.90;;;;;;5018209;28;20298;-75
2022/04/09 06:40:30;;;;;;;21.63;14.83;;;3.70;99.90;;;;;;5015212;28;20271;-75
2022/04/09 06:42:56;;;;;;;23.53;14.40;;;3.70;99.90;;;;;;5016188;28;20235;-75
2022/04/09 06:45:22;;;;;;;27.37;13.27;;;3.70;99.90;;;;;;5015353;28;21307;-75
2022/04/09 06:47:47;;;;;;;20.10;13.43;;;3.70;99.90;;;;;;5013215;28;20466;-73
2022/04/09 06:50:16;;;;;;;18.73;12.13;;;3.90;99.90;;;;;;5020639;28;20565;-77
2022/04/09 06:52:42;;;;;;;20.10;13.70;;;3.90;99.90;;;;;;5021324;28;20192;-78
2022/04/09 06:55:11;;;;;;;25.27;14.67;;;3.90;99.90;;;;;;5017195;28;20605;-76
2022/04/09 06:57:41;;;;;;;22.23;13.37;;;3.90;99.90;;;;;;5012962;28;20227;-77
2022/04/09 07:00:11;;;;;;;23.53;15.00;;;4.00;99.90;;;;;;5015597;28;20447;-76
2022/04/09 07:02:37;;;;;;;17.77;11.43;;;4.00;99.90;;;;;;5017286;28;20470;-74
2022/04/09 07:05:02;;;;;;;25.70;13.87;;;4.00;99.90;;;;;;5016000;28;20461;-74
2022/04/09 07:07:29;;;;;;;22.30;14.20;;;4.00;99.90;;;;;;5008521;28;20467;-75
2022/04/09 07:10:04;;;;;;;22.60;12.43;;;4.10;99.90;;;;;;5015839;28;20204;-75
2022/04/09 07:12:30;;;;;;;21.03;13.20;;;4.10;99.90;;;;;;5010841;28;20454;-75
2022/04/09 07:14:56;;;;;;;26.60;13.67;;;4.20;99.90;;;;;;5016517;28;20449;-75
2022/04/09 07:17:22;;;;;;;20.67;13.90;;;4.20;99.90;;;;;;5012491;28;20451;-76
2022/04/09 07:19:47;;;;;;;17.87;11.47;;;4.30;99.90;;;;;;5013945;28;20228;-76
2022/04/09 07:22:13;;;;;;;18.70;13.03;;;4.30;99.90;;;;;;5016026;28;20180;-74
2022/04/09 07:24:40;;;;;;;19.80;13.63;;;4.40;99.90;;;;;;5018315;28;20185;-75
2022/04/09 07:27:06;;;;;;;16.30;12.67;;;4.40;99.90;;;;;;5019643;28;20188;-75
2022/04/09 07:29:31;;;;;;;25.97;14.70;;;4.40;99.90;;;;;;5019094;28;20466;-75
2022/04/09 07:31:57;;;;;;;19.10;14.37;;;4.50;99.90;;;;;;5021895;28;20193;-74
2022/04/09 07:34:23;;;;;;;26.77;14.40;;;4.60;99.90;;;;;;5010976;28;20185;-77
2022/04/09 07:36:48;;;;;;;21.70;13.90;;;4.70;99.90;;;;;;5011238;28;20893;-75
2022/04/09 07:39:14;;;;;;;22.73;13.40;;;4.70;99.90;;;;;;5014368;28;20273;-75
2022/04/09 07:41:40;;;;;;;20.90;14.23;;;4.80;99.90;;;;;;5013390;28;20659;-75
2022/04/09 07:44:05;;;;;;;22.67;12.90;;;4.80;99.90;;;;;;5010651;28;20811;-77
2022/04/09 07:46:31;;;;;;;18.60;12.97;;;4.90;99.90;;;;;;5016609;28;20713;-73
2022/04/09 07:48:57;;;;;;;25.50;14.03;;;4.80;99.90;;;;;;5015590;28;20980;-75
2022/04/09 07:51:22;;;;;;;18.17;14.33;;;4.90;99.90;;;;;;5014356;28;20902;-76
2022/04/09 07:53:48;;;;;;;18.53;12.70;;;5.00;99.90;;;;;;5015436;28;20304;-74
2022/04/09 07:56:13;;;;;;;22.00;14.63;;;5.00;99.90;;;;;;5016809;28;20271;-74
2022/04/09 07:58:41;;;;;;;23.43;12.70;;;5.00;99.90;;;;;;5025048;28;20205;-72
2022/04/09 08:01:07;;;;;;;17.03;12.30;;;5.00;99.90;;;;;;5022415;28;20189;-73
2022/04/09 08:03:32;;;;;;;18.47;11.43;;;5.00;99.90;;;;;;5013915;28;21024;-72
2022/04/09 08:05:58;;;;;;;19.93;12.30;;;5.10;99.90;;;;;;5019067;28;20950;-73
2022/04/09 08:08:24;;;;;;;17.30;12.80;;;5.10;99.90;;;;;;5019325;28;20192;-73
2022/04/09 08:10:49;;;;;;;15.50;12.50;;;5.20;99.90;;;;;;5025234;28;20176;-73
2022/04/09 08:13:15;;;;;;;15.70;11.33;;;5.20;99.90;;;;;;5026485;28;20197;-73
2022/04/09 08:15:40;;;;;;;25.23;12.00;;;5.20;99.90;;;;;;5017921;28;20191;-73
2022/04/09 08:18:07;;;;;;;16.83;11.10;;;5.30;99.90;;;;;;5021340;28;20226;-73
2022/04/09 08:20:33;;;;;;;12.30;10.10;;;5.40;99.90;;;;;;5023006;28;20192;-74
2022/04/09 08:23:00;;;;;;;13.60;10.23;;;5.40;99.90;;;;;;5018646;28;21324;-74
2022/04/09 08:25:27;;;;;;;16.90;11.43;;;5.50;99.90;;;;;;5019047;28;20188;-75
2022/04/09 08:27:53;;;;;;;15.50;12.07;;;5.50;99.90;;;;;;5021114;28;20501;-76
2022/04/09 08:30:21;;;;;;;17.53;11.00;;;5.50;99.90;;;;;;5016370;28;20825;-74
2022/04/09 08:32:49;;;;;;;14.17;10.80;;;5.50;99.90;;;;;;5018534;28;20444;-77
2022/04/09 08:35:15;;;;;;;15.20;11.17;;;5.50;99.90;;;;;;5019325;28;20497;-78
2022/04/09 08:37:41;;;;;;;18.10;11.40;;;5.60;99.90;;;;;;5014233;28;20451;-75
2022/04/09 08:40:12;;;;;;;16.70;11.50;;;5.70;99.90;;;;;;5020191;28;20617;-76
2022/04/09 08:42:38;;;;;;;14.60;10.57;;;5.70;99.90;;;;;;5014780;28;20707;-75
2022/04/09 08:45:04;;;;;;;17.93;10.37;;;5.80;99.90;;;;;;5023903;28;20610;-75
2022/04/09 08:47:33;;;;;;;23.27;10.80;;;5.80;99.90;;;;;;5019267;28;20906;-76
2022/04/09 08:49:59;;;;;;;10.20;8.27;;;5.90;99.90;;;;;;5013816;28;20454;-75
2022/04/09 08:52:26;;;;;;;19.40;11.17;;;5.90;99.90;;;;;;5018158;28;21173;-75
2022/04/09 08:54:51;;;;;;;12.97;10.20;;;5.90;99.90;;;;;;5015686;28;20447;-72
2022/04/09 08:57:17;;;;;;;17.20;9.70;;;5.90;99.90;;;;;;5017603;28;20932;-73
2022/04/09 08:59:43;;;;;;;14.03;9.37;;;5.90;99.90;;;;;;5014245;28;20255;-73
2022/04/09 09:02:08;;;;;;;10.00;7.87;;;6.00;99.90;;;;;;5014194;28;20188;-73
2022/04/09 09:04:34;;;;;;;14.37;9.90;;;6.00;99.90;;;;;;5014861;28;20203;-73
2022/04/09 09:07:24;;;;;;;13.53;10.03;;;6.10;99.90;;;;;;5017876;28;20169;-74
2022/04/09 09:09:53;;;;;;;12.83;9.10;;;6.30;99.90;;;;;;5017998;28;20257;-75
2022/04/09 09:12:29;;;;;;;12.13;9.97;;;6.40;99.90;;;;;;5018880;28;20513;-74
2022/04/09 09:14:55;;;;;;;17.63;9.87;;;6.50;99.90;;;;;;5017518;28;20423;-75
2022/04/09 09:17:28;;;;;;;16.67;9.77;;;6.50;99.90;;;;;;5018444;28;20523;-74
2022/04/09 09:19:54;;;;;;;16.53;7.60;;;6.50;99.90;;;;;;5017275;28;20458;-75
2022/04/09 09:22:20;;;;;;;10.93;7.63;;;6.50;99.90;;;;;;5021437;28;20440;-75
2022/04/09 09:25:07;;;;;;;8.00;7.10;;;6.40;99.90;;;;;;5019596;28;20435;-79
2022/04/09 09:27:33;;;;;;;10.77;6.60;;;6.50;99.90;;;;;;5015595;28;20284;-75
2022/04/09 09:29:59;;;;;;;10.30;4.80;;;6.50;99.90;;;;;;5021628;28;20499;-76
2022/04/09 09:32:26;;;;;;;11.23;7.23;;;6.60;99.90;;;;;;5020120;28;21050;-76
2022/04/09 09:34:56;;;;;;;11.93;7.33;;;6.60;99.90;;;;;;5016025;28;20194;-75
2022/04/09 09:37:24;;;;;;;10.70;6.70;;;6.70;99.90;;;;;;5017442;28;20426;-75
2022/04/09 09:39:50;;;;;;;8.50;6.47;;;6.80;99.90;;;;;;5014424;28;20979;-75
2022/04/09 09:42:20;;;;;;;10.43;6.97;;;6.80;99.90;;;;;;5018806;28;20520;-74
2022/04/09 09:44:46;;;;;;;22.83;7.00;;;6.90;99.90;;;;;;5015079;28;20547;-74
2022/04/09 09:47:12;;;;;;;9.43;6.20;;;6.90;99.90;;;;;;5017360;28;20457;-74
2022/04/09 09:49:53;;;;;;;7.47;6.10;;;6.90;99.90;;;;;;5016412;28;20205;-74
2022/04/09 09:52:26;;;;;;;6.07;4.83;;;6.90;99.90;;;;;;5014430;28;20427;-74
2022/04/09 09:55:10;;;;;;;10.30;6.10;;;6.90;99.90;;;;;;5015264;28;20456;-75
2022/04/09 09:57:38;;;;;;;10.40;6.10;;;7.00;99.90;;;;;;5017182;28;20519;-74
2022/04/09 10:00:06;;;;;;;10.70;5.83;;;7.10;99.90;;;;;;5019291;28;20460;-75
2022/04/09 10:02:32;;;;;;;9.53;5.80;;;7.30;99.90;;;;;;5017380;28;20435;-74
2022/04/09 10:04:57;;;;;;;10.00;5.90;;;7.30;99.90;;;;;;5018793;28;20450;-74
2022/04/09 10:07:24;;;;;;;11.67;5.40;;;7.50;99.90;;;;;;5017579;28;20185;-76
2022/04/09 10:09:50;;;;;;;11.20;6.23;;;7.60;99.90;;;;;;5020592;28;20674;-75
2022/04/09 10:12:21;;;;;;;10.87;5.47;;;7.60;99.90;;;;;;5016767;28;20452;-75
2022/04/09 10:14:59;;;;;;;11.63;5.20;;;7.70;99.90;;;;;;5018478;28;20447;-75
2022/04/09 10:17:27;;;;;;;11.83;5.13;;;7.70;99.90;;;;;;5019392;28;20506;-75
2022/04/09 10:19:57;;;;;;;8.17;4.33;;;7.60;99.90;;;;;;5020197;28;21532;-75
2022/04/09 10:22:26;;;;;;;7.73;5.20;;;7.60;99.90;;;;;;5017781;28;20465;-75
2022/04/09 10:24:53;;;;;;;8.07;6.50;;;7.50;99.90;;;;;;5017839;28;21003;-74
2022/04/09 10:27:35;;;;;;;10.43;5.43;;;7.60;99.90;;;;;;5016586;28;20439;-74
2022/04/09 10:30:04;;;;;;;10.67;6.00;;;7.50;99.90;;;;;;5018652;28;20455;-76
2022/04/09 10:32:47;;;;;;;12.93;5.83;;;7.50;99.90;;;;;;5014622;28;21016;-76
2022/04/09 10:35:41;;;;;;;11.13;6.90;;;7.60;99.90;;;;;;5012678;28;20868;-75
2022/04/09 10:38:16;;;;;;;8.07;4.53;;;7.70;99.90;;;;;;5025696;28;20462;-77
2022/04/09 10:40:52;;;;;;;11.10;6.00;;;7.60;99.90;;;;;;5027558;28;20602;-75
2022/04/09 10:43:30;;;;;;;9.60;4.70;;;7.70;99.90;;;;;;5031149;28;20466;-78
2022/04/09 10:46:09;;;;;;;12.77;5.20;;;7.80;99.90;;;;;;5027515;28;20435;-77
2022/04/09 10:48:44;;;;;;;8.50;4.47;;;7.90;99.90;;;;;;5035374;28;20451;-76
2022/04/09 10:51:14;;;;;;;14.00;4.70;;;8.00;99.90;;;;;;5029933;28;20423;-76
2022/04/09 10:53:50;;;;;;;8.40;4.93;;;8.00;99.90;;;;;;5033483;28;20450;-76
2022/04/09 10:56:29;;;;;;;6.73;4.47;;;7.90;99.90;;;;;;5015235;28;20446;-76
2022/04/09 10:59:05;;;;;;;7.60;4.17;;;7.90;99.90;;;;;;5015529;28;20488;-75
2022/04/09 11:01:51;;;;;;;3.07;2.40;;;7.90;99.90;;;;;;5016765;28;20465;-75
2022/04/09 11:07:15;;;;;;;11.57;5.73;;;7.80;99.90;;;;;;5020778;28;20447;-77
2022/04/09 11:09:59;;;;;;;11.27;4.80;;;8.00;99.90;;;;;;5020203;28;20885;-75
2022/04/09 11:12:41;;;;;;;7.07;3.80;;;8.20;99.90;;;;;;5019000;28;20431;-73
2022/04/09 11:15:11;;;;;;;6.87;3.83;;;8.40;99.90;;;;;;5021938;28;20435;-72
2022/04/09 11:17:37;;;;;;;7.93;4.40;;;8.50;99.90;;;;;;5021156;28;20505;-74
2022/04/09 11:20:05;;;;;;;12.10;5.93;;;8.50;99.90;;;;;;5028593;28;20455;-73
2022/04/09 11:22:35;;;;;;;14.00;4.60;;;8.40;99.90;;;;;;5020673;28;20625;-73
2022/04/09 11:25:02;;;;;;;5.30;3.97;;;8.50;99.90;;;;;;5020056;28;20520;-74
2022/04/09 11:27:28;;;;;;;8.20;4.50;;;8.50;99.90;;;;;;5021997;28;20497;-73
2022/04/09 11:29:57;;;;;;;6.73;4.73;;;8.50;99.90;;;;;;5020749;28;20450;-75
2022/04/09 11:32:23;;;;;;;4.47;2.73;;;8.60;99.90;;;;;;5020711;28;20449;-73
2022/04/09 11:34:56;;;;;;;8.40;4.20;;;8.50;99.90;;;;;;5022884;28;20423;-73
2022/04/09 11:37:28;;;;;;;5.10;4.03;;;8.60;99.90;;;;;;5016749;28;20419;-74
2022/04/09 11:39:54;;;;;;;10.50;4.50;;;8.80;99.90;;;;;;5020838;28;20483;-74
2022/04/09 11:42:19;;;;;;;8.83;3.10;;;8.80;99.90;;;;;;5022530;28;20462;-74
2022/04/09 11:44:45;;;;;;;8.00;3.50;;;8.90;99.90;;;;;;5018299;28;20178;-73
2022/04/09 11:47:16;;;;;;;5.43;3.63;;;8.90;99.90;;;;;;5016687;28;20168;-73
2022/04/09 11:49:47;;;;;;;7.43;2.80;;;9.00;99.90;;;;;;5017987;28;20818;-77
2022/04/09 11:52:23;;;;;;;5.13;3.17;;;9.10;99.90;;;;;;5019437;28;20481;-73
2022/04/09 11:54:49;;;;;;;9.50;3.03;;;9.10;99.90;;;;;;5018853;28;20435;-78
2022/04/09 11:57:15;;;;;;;10.97;4.10;;;9.20;99.90;;;;;;5022520;28;20492;-78
2022/04/09 11:59:40;;;;;;;10.00;3.53;;;9.20;99.90;;;;;;5023199;28;20543;-77
2022/04/09 12:02:27;;;;;;;8.70;3.93;;;9.10;99.90;;;;;;5015231;28;20183;-77
2022/04/09 12:05:02;;;;;;;8.90;4.00;;;9.00;99.90;;;;;;5016512;28;20181;-77
2022/04/09 12:07:30;;;;;;;6.10;2.93;;;9.10;99.90;;;;;;5021970;28;20447;-77
2022/04/09 12:09:56;;;;;;;10.10;3.50;;;8.90;99.90;;;;;;5012025;28;20451;-77
2022/04/09 12:12:23;;;;;;;8.07;3.30;;;8.90;99.90;;;;;;5015449;28;20512;-76
2022/04/09 12:14:57;;;;;;;7.40;3.60;;;9.50;99.90;;;;;;5016903;28;20445;-77
2022/04/09 12:17:34;;;;;;;5.43;3.37;;;10.10;99.90;;;;;;5017131;28;20513;-76
2022/04/09 12:20:20;;;;;;;5.50;3.57;;;10.60;99.90;;;;;;5020300;28;20819;-78
2022/04/09 12:22:55;;;;;;;3.87;2.90;;;10.30;99.90;;;;;;5014450;28;21154;-76
2022/04/09 12:25:42;;;;;;;11.20;3.80;;;9.90;99.90;;;;;;5023669;28;20430;-77
2022/04/09 12:28:25;;;;;;;7.37;3.70;;;9.70;99.90;;;;;;5020498;28;20455;-77
2022/04/09 12:30:53;;;;;;;5.43;3.63;;;9.70;99.90;;;;;;5018672;28;20504;-78
2022/04/09 12:33:19;;;;;;;10.50;3.90;;;9.80;99.90;;;;;;5020243;28;20443;-77
2022/04/09 12:35:46;;;;;;;4.47;3.10;;;9.60;99.90;;;;;;5018562;28;20440;-78
2022/04/09 12:38:28;;;;;;;5.50;3.40;;;9.70;99.90;;;;;;5017739;28;20451;-78
2022/04/09 12:40:59;;;;;;;6.77;3.50;;;10.20;99.90;;;;;;5017736;28;20436;-77
2022/04/09 12:43:32;;;;;;;9.30;3.60;;;10.90;99.90;;;;;;5017805;28;20465;-78
2022/04/09 12:46:02;;;;;;;5.43;3.47;;;11.00;99.90;;;;;;5014979;28;20558;-77
2022/04/09 12:48:39;;;;;;;7.43;3.90;;;10.60;99.90;;;;;;5022250;28;20512;-78
2022/04/09 12:51:05;;;;;;;4.77;4.13;;;10.20;99.90;;;;;;5018788;28;21129;-76
2022/04/09 12:53:31;;;;;;;9.83;3.50;;;10.00;99.90;;;;;;5016805;28;20558;-77